createdAt,value
2019-01-12T00:00:38.016Z,19.40
2019-01-12T00:03:11.708Z,19.30
2019-01-12T00:05:45.332Z,19.30
2019-01-12T00:08:19.100Z,19.20
2019-01-12T00:10:52.880Z,19.10
2019-01-12T00:13:26.571Z,19.10
2019-01-12T00:16:00.296Z,19.00
2019-01-12T00:18:33.955Z,18.90
2019-01-12T00:21:07.512Z,19.00
2019-01-12T00:23:41.127Z,18.90
2019-01-12T00:26:14.898Z,18.80
2019-01-12T00:28:48.488Z,18.80
2019-01-12T00:31:22.214Z,18.80
2019-01-12T00:33:55.798Z,18.70
2019-01-12T00:36:29.481Z,18.70
2019-01-12T00:39:03.198Z,18.60
2019-01-12T00:41:36.915Z,18.50
2019-01-12T00:44:10.601Z,18.50
2019-01-12T00:46:44.634Z,18.50
2019-01-12T00:49:21.331Z,18.40
2019-01-12T00:51:55.059Z,18.40
2019-01-12T00:54:28.760Z,18.30
2019-01-12T00:57:03.397Z,18.30
2019-01-12T00:59:36.978Z,18.20
2019-01-12T01:02:10.808Z,18.20
2019-01-12T01:04:44.410Z,18.10
2019-01-12T01:07:19.423Z,18.00
2019-01-12T01:09:54.519Z,17.90
2019-01-12T01:12:29.863Z,17.80
2019-01-12T01:15:04.568Z,17.80
2019-01-12T01:17:38.585Z,17.80
2019-01-12T01:20:14.224Z,17.70
2019-01-12T01:22:47.945Z,17.70
2019-01-12T01:25:21.616Z,17.60
2019-01-12T01:27:55.200Z,17.70
2019-01-12T01:30:28.850Z,17.60
2019-01-12T01:33:02.471Z,17.60
2019-01-12T01:35:36.030Z,17.60
2019-01-12T01:38:09.710Z,17.50
2019-01-12T01:40:45.013Z,17.50
2019-01-12T01:43:18.624Z,17.40
2019-01-12T01:45:52.122Z,17.40
2019-01-12T01:48:25.780Z,17.30
2019-01-12T01:50:59.627Z,17.30
2019-01-12T01:53:33.455Z,17.30
2019-01-12T01:56:07.023Z,17.20
2019-01-12T01:58:40.697Z,17.20
2019-01-12T02:01:25.067Z,17.10
2019-01-12T02:04:00.671Z,17.10
2019-01-12T02:06:35.287Z,17.10
2019-01-12T02:09:11.884Z,17.10
2019-01-12T02:11:47.018Z,17.10
2019-01-12T02:14:20.639Z,17.10
2019-01-12T02:16:54.527Z,17.10
2019-01-12T02:19:28.375Z,17.10
2019-01-12T02:22:02.150Z,17.10
2019-01-12T02:24:35.922Z,17.10
2019-01-12T02:27:09.703Z,17.10
2019-01-12T02:29:44.099Z,17.10
2019-01-12T02:32:17.874Z,17.10
2019-01-12T02:34:51.408Z,17.10
2019-01-12T02:37:25.231Z,17.10
2019-01-12T02:39:59.893Z,17.10
2019-01-12T02:42:33.536Z,17.00
2019-01-12T02:45:07.887Z,17.00
2019-01-12T02:47:42.724Z,17.00
2019-01-12T02:50:17.053Z,16.90
2019-01-12T02:52:52.227Z,16.90
2019-01-12T02:55:26.940Z,16.80
2019-01-12T02:58:00.488Z,16.90
2019-01-12T03:00:34.043Z,16.90
2019-01-12T03:03:09.458Z,16.80
2019-01-12T03:05:44.248Z,16.80
2019-01-12T03:08:17.996Z,16.80
2019-01-12T03:10:52.477Z,16.80
2019-01-12T03:13:26.082Z,16.80
2019-01-12T03:15:59.805Z,16.80
2019-01-12T03:18:33.452Z,16.70
2019-01-12T03:21:07.119Z,16.70
2019-01-12T03:23:41.793Z,16.70
2019-01-12T03:26:15.737Z,16.70
2019-01-12T03:28:50.754Z,16.70
2019-01-12T03:31:24.620Z,16.60
2019-01-12T03:33:58.245Z,16.50
2019-01-12T03:36:32.160Z,16.50
2019-01-12T03:39:07.073Z,16.50
2019-01-12T03:41:43.839Z,16.40
2019-01-12T03:44:17.421Z,16.40
2019-01-12T03:46:52.551Z,16.30
2019-01-12T03:49:26.671Z,16.30
2019-01-12T03:52:01.616Z,16.20
2019-01-12T03:54:35.720Z,16.10
2019-01-12T03:57:09.386Z,16.10
2019-01-12T03:59:43.207Z,16.10
2019-01-12T04:02:16.835Z,16.10
2019-01-12T04:04:50.497Z,16.10
2019-01-12T04:07:26.226Z,16.10
2019-01-12T04:09:59.839Z,16.10
2019-01-12T04:12:33.746Z,16.00
2019-01-12T04:15:08.388Z,16.00
2019-01-12T04:17:42.323Z,16.00
2019-01-12T04:20:17.619Z,16.00
2019-01-12T04:22:52.817Z,15.90
2019-01-12T04:25:33.755Z,15.90
2019-01-12T04:28:02.888Z,15.80
2019-01-12T04:30:36.530Z,15.80
2019-01-12T04:33:11.403Z,15.80
2019-01-12T04:35:46.024Z,15.80
2019-01-12T04:38:19.819Z,15.70
2019-01-12T04:40:53.501Z,15.70
2019-01-12T04:43:27.185Z,15.70
2019-01-12T04:46:00.990Z,15.70
2019-01-12T04:48:35.906Z,15.70
2019-01-12T04:51:09.951Z,15.60
2019-01-12T04:53:44.787Z,15.60
2019-01-12T04:56:18.620Z,15.60
2019-01-12T04:58:52.298Z,15.60
2019-01-12T05:01:26.000Z,15.50
2019-01-12T05:04:00.233Z,15.50
2019-01-12T05:06:35.059Z,15.50
2019-01-12T05:09:10.810Z,15.50
2019-01-12T05:11:44.565Z,15.40
2019-01-12T05:14:18.203Z,15.40
2019-01-12T05:16:51.901Z,15.40
2019-01-12T05:19:26.703Z,15.40
2019-01-12T05:22:00.596Z,15.40
2019-01-12T05:24:34.596Z,15.40
2019-01-12T05:27:09.391Z,15.30
2019-01-12T05:29:44.793Z,15.30
2019-01-12T05:32:18.532Z,15.30
2019-01-12T05:34:52.181Z,15.30
2019-01-12T05:37:25.828Z,15.30
2019-01-12T05:39:59.528Z,15.30
2019-01-12T05:42:33.403Z,15.30
2019-01-12T05:45:07.766Z,15.30
2019-01-12T05:47:41.278Z,15.30
2019-01-12T05:50:16.651Z,15.30
2019-01-12T05:52:51.669Z,15.30
2019-01-12T05:55:26.479Z,15.30
2019-01-12T05:58:01.569Z,15.40
2019-01-12T06:00:35.196Z,15.40
2019-01-12T06:03:10.075Z,15.40
2019-01-12T06:05:45.246Z,15.40
2019-01-12T06:08:19.719Z,15.50
2019-01-12T06:10:54.675Z,15.40
2019-01-12T06:13:29.935Z,15.40
2019-01-12T06:16:03.663Z,15.40
2019-01-12T06:18:37.465Z,15.40
2019-01-12T06:21:11.647Z,15.40
2019-01-12T06:23:45.375Z,15.40
2019-01-12T06:26:19.778Z,15.40
2019-01-12T06:28:53.404Z,15.30
2019-01-12T06:31:27.175Z,15.40
2019-01-12T06:34:00.844Z,15.40
2019-01-12T06:36:35.756Z,15.40
2019-01-12T06:39:13.042Z,15.40
2019-01-12T06:41:48.349Z,15.40
2019-01-12T06:44:22.099Z,15.40
2019-01-12T06:46:55.714Z,15.40
2019-01-12T06:49:29.372Z,15.30
2019-01-12T06:52:03.148Z,15.30
2019-01-12T06:54:36.796Z,15.30
2019-01-12T06:57:11.492Z,15.30
2019-01-12T06:59:47.602Z,15.20
2019-01-12T07:02:21.258Z,15.20
2019-01-12T07:04:54.875Z,15.20
2019-01-12T07:07:29.555Z,15.10
2019-01-12T07:10:03.157Z,15.10
2019-01-12T07:12:36.696Z,15.10
2019-01-12T07:15:13.332Z,15.10
2019-01-12T07:17:47.048Z,15.10
2019-01-12T07:20:22.489Z,15.10
2019-01-12T07:22:56.189Z,15.10
2019-01-12T07:25:29.895Z,15.10
2019-01-12T07:28:03.607Z,15.10
2019-01-12T07:30:37.380Z,15.10
2019-01-12T07:33:10.995Z,15.10
2019-01-12T07:35:44.647Z,15.10
2019-01-12T07:38:18.384Z,15.10
2019-01-12T07:40:52.018Z,15.10
2019-01-12T07:43:26.387Z,15.10
2019-01-12T07:46:01.095Z,15.10
2019-01-12T07:48:34.808Z,15.10
2019-01-12T07:51:09.967Z,15.10
2019-01-12T07:53:43.640Z,15.10
2019-01-12T07:56:17.402Z,15.10
2019-01-12T07:58:51.035Z,15.10
2019-01-12T08:01:24.987Z,15.20
2019-01-12T08:03:58.609Z,15.20
2019-01-12T08:06:34.368Z,15.20
2019-01-12T08:09:10.912Z,15.20
2019-01-12T08:11:44.514Z,15.20
2019-01-12T08:14:18.139Z,15.20
2019-01-12T08:16:51.780Z,15.20
2019-01-12T08:19:25.423Z,15.20
2019-01-12T08:21:59.087Z,15.20
2019-01-12T08:24:32.547Z,15.30
2019-01-12T08:27:06.291Z,15.30
2019-01-12T08:29:39.995Z,15.30
2019-01-12T08:32:13.607Z,15.30
2019-01-12T08:34:47.188Z,15.30
2019-01-12T08:37:20.972Z,15.20
2019-01-12T08:39:54.588Z,15.20
2019-01-12T08:42:28.322Z,15.20
2019-01-12T08:45:02.105Z,15.10
2019-01-12T08:47:36.890Z,15.20
2019-01-12T08:50:18.520Z,15.10
2019-01-12T08:52:52.272Z,15.00
2019-01-12T08:55:27.288Z,14.90
2019-01-12T08:58:01.104Z,14.90
2019-01-12T09:00:36.075Z,14.80
2019-01-12T09:03:09.999Z,14.70
2019-01-12T09:05:43.714Z,14.70
2019-01-12T09:08:17.332Z,14.70
2019-01-12T09:10:51.015Z,14.70
2019-01-12T09:13:24.631Z,14.60
2019-01-12T09:15:58.366Z,14.60
2019-01-12T09:18:32.122Z,14.50
2019-01-12T09:21:06.867Z,14.50
2019-01-12T09:23:40.563Z,14.50
2019-01-12T09:26:15.423Z,14.50
2019-01-12T09:28:49.188Z,14.50
2019-01-12T09:31:22.918Z,14.50
2019-01-12T09:33:56.599Z,14.50
2019-01-12T09:36:30.364Z,14.40
2019-01-12T09:39:05.246Z,14.40
2019-01-12T09:41:39.027Z,14.40
2019-01-12T09:44:12.748Z,14.40
2019-01-12T09:46:47.142Z,14.40
2019-01-12T09:49:20.747Z,14.40
2019-01-12T09:51:54.464Z,14.40
2019-01-12T09:54:29.383Z,14.50
2019-01-12T09:57:03.123Z,14.50
2019-01-12T09:59:36.743Z,14.50
2019-01-12T10:02:10.475Z,14.50
2019-01-12T10:04:44.319Z,14.50
2019-01-12T10:07:17.930Z,14.50
2019-01-12T10:09:51.613Z,14.40
2019-01-12T10:12:25.212Z,14.40
2019-01-12T10:14:58.838Z,14.40
2019-01-12T10:17:32.464Z,14.50
2019-01-12T10:20:24.076Z,14.40
2019-01-12T10:22:57.740Z,14.50
2019-01-12T10:25:31.504Z,14.40
2019-01-12T10:28:06.426Z,14.40
2019-01-12T10:30:40.147Z,14.30
2019-01-12T10:33:13.859Z,14.30
2019-01-12T10:35:47.643Z,14.30
2019-01-12T10:38:21.588Z,14.30
2019-01-12T10:40:55.998Z,14.30
2019-01-12T10:43:29.653Z,14.40
2019-01-12T10:46:04.672Z,14.40
2019-01-12T10:48:38.503Z,14.40
2019-01-12T10:51:12.262Z,14.40
2019-01-12T10:53:45.907Z,14.40
2019-01-12T10:56:19.713Z,14.40
2019-01-12T10:58:53.443Z,14.40
2019-01-12T11:01:27.196Z,14.40
2019-01-12T11:04:00.973Z,14.40
2019-01-12T11:06:34.829Z,14.40
2019-01-12T11:09:10.741Z,14.40
2019-01-12T11:11:44.354Z,14.40
2019-01-12T11:14:18.005Z,14.40
2019-01-12T11:16:51.718Z,14.40
2019-01-12T11:19:26.600Z,14.40
2019-01-12T11:22:00.783Z,14.40
2019-01-12T11:24:34.388Z,14.40
2019-01-12T11:27:12.198Z,14.40
2019-01-12T11:29:43.252Z,14.40
2019-01-12T11:32:16.925Z,14.40
2019-01-12T11:34:50.595Z,14.40
2019-01-12T11:37:24.167Z,14.50
2019-01-12T11:39:57.947Z,14.60
2019-01-12T11:42:31.549Z,14.60
2019-01-12T11:45:05.343Z,14.60
2019-01-12T11:47:38.963Z,14.60
2019-01-12T11:50:15.223Z,14.60
2019-01-12T11:52:49.502Z,14.60
2019-01-12T11:55:23.575Z,14.60
2019-01-12T11:57:57.180Z,14.60
2019-01-12T12:00:34.238Z,14.60
2019-01-12T12:03:08.342Z,14.60
2019-01-12T12:05:43.774Z,14.60
2019-01-12T12:08:17.470Z,14.60
2019-01-12T12:10:51.130Z,14.60
2019-01-12T12:13:24.780Z,14.60
2019-01-12T12:15:58.376Z,14.60
2019-01-12T12:18:32.172Z,14.60
2019-01-12T12:21:05.818Z,14.70
2019-01-12T12:23:39.539Z,14.70
2019-01-12T12:26:14.203Z,14.70
2019-01-12T12:28:50.366Z,14.80
2019-01-12T12:31:24.764Z,14.80
2019-01-12T12:33:58.503Z,14.80
2019-01-12T12:36:32.143Z,14.80
2019-01-12T12:39:07.011Z,14.80
2019-01-12T12:41:41.987Z,14.80
2019-01-12T12:44:15.812Z,14.80
2019-01-12T12:46:49.818Z,14.90
2019-01-12T12:49:23.324Z,14.90
2019-01-12T12:51:56.900Z,14.90
2019-01-12T12:54:30.487Z,14.90
2019-01-12T12:57:05.106Z,15.00
2019-01-12T12:59:38.768Z,15.00
2019-01-12T13:02:12.764Z,15.00
2019-01-12T13:04:46.310Z,15.10
2019-01-12T13:07:19.990Z,15.10
2019-01-12T13:09:53.549Z,15.20
2019-01-12T13:12:28.679Z,15.20
2019-01-12T13:15:02.335Z,15.30
2019-01-12T13:17:36.011Z,15.30
2019-01-12T13:20:11.579Z,15.40
2019-01-12T13:22:47.205Z,15.50
2019-01-12T13:25:22.443Z,15.60
2019-01-12T13:27:56.242Z,15.70
2019-01-12T13:30:31.271Z,15.80
2019-01-12T13:33:05.163Z,15.80
2019-01-12T13:35:39.142Z,15.90
2019-01-12T13:38:12.968Z,15.90
2019-01-12T13:40:51.434Z,16.00
2019-01-12T13:43:25.275Z,16.00
2019-01-12T13:45:59.184Z,16.10
2019-01-12T13:48:33.028Z,16.20
2019-01-12T13:51:08.167Z,16.30
2019-01-12T13:53:41.759Z,16.30
2019-01-12T13:56:15.448Z,16.40
2019-01-12T13:58:49.040Z,16.40
2019-01-12T14:01:22.978Z,16.40
2019-01-12T14:03:56.619Z,16.50
2019-01-12T14:06:30.366Z,16.60
2019-01-12T14:09:04.830Z,16.70
2019-01-12T14:11:38.402Z,16.70
2019-01-12T14:14:12.074Z,16.80
2019-01-12T14:16:46.936Z,16.90
2019-01-12T14:19:20.595Z,16.90
2019-01-12T14:21:54.210Z,17.00
2019-01-12T14:24:27.876Z,17.10
2019-01-12T14:27:02.678Z,17.20
2019-01-12T14:29:36.323Z,17.20
2019-01-12T14:32:10.196Z,17.30
2019-01-12T14:34:43.998Z,17.40
2019-01-12T14:37:17.967Z,17.40
2019-01-12T14:39:51.812Z,17.50
2019-01-12T14:42:25.496Z,17.50
2019-01-12T14:44:59.315Z,17.70
2019-01-12T14:47:35.536Z,17.70
2019-01-12T14:50:11.383Z,17.80
2019-01-12T14:52:47.446Z,17.90
2019-01-12T14:55:23.577Z,18.10
2019-01-12T14:58:02.180Z,18.10
2019-01-12T15:00:33.754Z,18.20
2019-01-12T15:03:07.702Z,18.30
2019-01-12T15:05:41.421Z,18.40
2019-01-12T15:08:15.132Z,18.40
2019-01-12T15:10:49.023Z,18.50
2019-01-12T15:13:23.220Z,18.60
2019-01-12T15:16:03.231Z,18.70
2019-01-12T15:18:37.074Z,18.80
2019-01-12T15:21:10.894Z,18.80
2019-01-12T15:23:44.707Z,18.90
2019-01-12T15:26:18.711Z,19.00
2019-01-12T15:28:52.479Z,19.10
2019-01-12T15:31:26.267Z,19.20
2019-01-12T15:34:00.070Z,19.40
2019-01-12T15:36:33.976Z,19.50
2019-01-12T15:39:09.711Z,19.70
2019-01-12T15:41:43.443Z,19.70
2019-01-12T15:44:18.291Z,19.80
2019-01-12T15:46:51.943Z,19.80
2019-01-12T15:49:25.358Z,19.80
2019-01-12T15:52:00.494Z,19.90
2019-01-12T15:54:34.135Z,20.00
2019-01-12T15:57:07.775Z,20.10
2019-01-12T15:59:41.341Z,20.20
2019-01-12T16:02:14.902Z,20.20
2019-01-12T16:04:50.140Z,20.20
2019-01-12T16:07:23.307Z,20.40
2019-01-12T16:09:57.298Z,20.50
2019-01-12T16:12:30.930Z,20.60
2019-01-12T16:15:04.584Z,20.60
2019-01-12T16:17:38.251Z,20.60
2019-01-12T16:20:16.208Z,20.70
2019-01-12T16:22:50.014Z,20.90
2019-01-12T16:25:23.793Z,20.90
2019-01-12T16:27:57.471Z,20.90
2019-01-12T16:30:31.278Z,21.00
2019-01-12T16:33:05.087Z,21.10
2019-01-12T16:35:38.910Z,21.20
2019-01-12T16:38:12.578Z,21.20
2019-01-12T16:40:47.192Z,21.20
2019-01-12T16:43:20.879Z,21.30
2019-01-12T16:45:54.632Z,21.30
2019-01-12T16:48:28.294Z,21.50
2019-01-12T16:51:03.190Z,21.50
2019-01-12T16:53:36.832Z,21.50
2019-01-12T16:56:10.538Z,21.60
2019-01-12T16:58:44.165Z,21.70
2019-01-12T17:01:17.991Z,21.80
2019-01-12T17:03:51.665Z,21.90
2019-01-12T17:06:25.342Z,22.00
2019-01-12T17:08:58.980Z,22.10
2019-01-12T17:11:32.694Z,22.10
2019-01-12T17:14:06.462Z,22.20
2019-01-12T17:16:40.016Z,22.20
2019-01-12T17:19:13.799Z,22.40
2019-01-12T17:21:47.410Z,22.50
2019-01-12T17:24:21.011Z,22.50
2019-01-12T17:26:54.755Z,22.60
2019-01-12T17:29:28.803Z,22.60
2019-01-12T17:32:02.416Z,22.70
2019-01-12T17:34:36.255Z,22.80
2019-01-12T17:37:10.058Z,22.90
2019-01-12T17:39:43.829Z,22.90
2019-01-12T17:42:17.462Z,23.00
2019-01-12T17:44:51.418Z,23.00
2019-01-12T17:47:25.042Z,23.10
2019-01-12T17:49:58.739Z,23.10
2019-01-12T17:52:32.479Z,23.20
2019-01-12T17:55:06.784Z,23.30
2019-01-12T17:57:40.652Z,23.30
2019-01-12T18:00:20.085Z,23.40
2019-01-12T18:02:54.328Z,23.50
2019-01-12T18:05:31.515Z,23.60
2019-01-12T18:08:05.088Z,23.70
2019-01-12T18:10:38.812Z,23.80
2019-01-12T18:13:12.930Z,23.90
2019-01-12T18:15:47.901Z,24.00
2019-01-12T18:18:23.181Z,24.10
2019-01-12T18:21:00.008Z,24.20
2019-01-12T18:23:33.873Z,24.20
2019-01-12T18:26:07.636Z,24.20
2019-01-12T18:28:41.472Z,24.20
2019-01-12T18:31:21.393Z,24.30
2019-01-12T18:33:55.296Z,24.30
2019-01-12T18:36:29.077Z,24.30
2019-01-12T18:39:02.924Z,24.50
2019-01-12T18:41:36.602Z,24.70
2019-01-12T18:44:10.458Z,24.90
2019-01-12T18:46:44.124Z,24.90
2019-01-12T18:49:17.931Z,24.90
2019-01-12T18:51:51.718Z,25.00
2019-01-12T18:54:25.413Z,25.10
2019-01-12T18:56:59.096Z,25.20
2019-01-12T18:59:32.975Z,25.20
2019-01-12T19:02:06.967Z,25.30
2019-01-12T19:04:41.401Z,25.30
2019-01-12T19:07:15.210Z,25.30
2019-01-12T19:09:49.943Z,25.50
2019-01-12T19:12:23.808Z,25.60
2019-01-12T19:14:57.549Z,25.70
2019-01-12T19:17:32.280Z,25.70
2019-01-12T19:20:06.939Z,25.80
2019-01-12T19:22:40.608Z,25.80
2019-01-12T19:25:15.573Z,25.80
2019-01-12T19:27:49.493Z,25.90
2019-01-12T19:30:24.196Z,25.90
2019-01-12T19:32:57.878Z,26.00
2019-01-12T19:35:31.798Z,26.10
2019-01-12T19:38:05.456Z,26.10
2019-01-12T19:40:40.803Z,26.20
2019-01-12T19:43:14.393Z,26.20
2019-01-12T19:45:49.791Z,26.10
2019-01-12T19:48:28.446Z,26.00
2019-01-12T19:51:02.288Z,26.10
2019-01-12T19:53:36.000Z,26.00
2019-01-12T19:56:09.928Z,26.00
2019-01-12T19:58:43.688Z,26.00
2019-01-12T20:01:17.327Z,26.10
2019-01-12T20:03:51.017Z,26.30
2019-01-12T20:06:24.700Z,26.30
2019-01-12T20:08:58.281Z,26.40
2019-01-12T20:11:32.030Z,26.50
2019-01-12T20:14:05.836Z,26.50
2019-01-12T20:16:40.679Z,26.40
2019-01-12T20:19:14.496Z,26.20
2019-01-12T20:21:48.327Z,26.10
2019-01-12T20:24:22.072Z,26.30
2019-01-12T20:26:55.777Z,26.40
2019-01-12T20:29:29.737Z,26.60
2019-01-12T20:32:28.198Z,26.80
2019-01-12T20:35:31.985Z,26.70
2019-01-12T20:38:42.320Z,26.80
2019-01-12T20:41:38.691Z,26.80
2019-01-12T20:44:50.619Z,26.90
2019-01-12T20:47:50.067Z,27.10
2019-01-12T20:50:33.135Z,27.40
2019-01-12T20:53:24.296Z,27.60
2019-01-12T20:56:24.467Z,27.70
2019-01-12T20:59:28.310Z,27.40
2019-01-12T21:02:16.427Z,27.10
2019-01-12T21:05:24.856Z,27.20
2019-01-12T21:08:25.352Z,27.00
2019-01-12T21:11:38.605Z,26.90
2019-01-12T21:14:41.463Z,27.20
2019-01-12T21:17:19.402Z,27.70
2019-01-12T21:19:53.107Z,28.00
2019-01-12T21:22:26.687Z,27.80
2019-01-12T21:25:00.239Z,27.70
2019-01-12T21:27:33.888Z,27.70
2019-01-12T21:30:09.171Z,27.60
2019-01-12T21:32:42.954Z,27.40
2019-01-12T21:35:17.067Z,27.30
2019-01-12T21:37:52.491Z,27.20
2019-01-12T21:40:26.227Z,27.40
2019-01-12T21:42:59.765Z,27.50
2019-01-12T21:45:33.379Z,27.50
2019-01-12T21:48:08.410Z,27.30
2019-01-12T21:50:42.300Z,27.20
2019-01-12T21:53:16.909Z,27.00
2019-01-12T21:55:50.703Z,26.90
2019-01-12T21:58:24.399Z,26.80
2019-01-12T22:00:59.284Z,26.50
2019-01-12T22:03:33.012Z,26.50
2019-01-12T22:06:08.192Z,26.60
2019-01-12T22:08:41.917Z,26.60
2019-01-12T22:11:15.568Z,26.70
2019-01-12T22:13:49.365Z,26.90
2019-01-12T22:16:23.183Z,27.00
2019-01-12T22:18:57.042Z,26.90
2019-01-12T22:21:30.810Z,27.00
2019-01-12T22:24:04.618Z,27.00
2019-01-12T22:26:38.334Z,26.80
2019-01-12T22:29:12.581Z,26.70
2019-01-12T22:31:46.669Z,26.60
2019-01-12T22:34:21.951Z,26.40
2019-01-12T22:36:55.778Z,26.50
2019-01-12T22:39:29.562Z,26.40
2019-01-12T22:42:03.367Z,26.20
2019-01-12T22:44:37.024Z,25.90
2019-01-12T22:47:11.000Z,25.70
2019-01-12T22:49:44.683Z,25.50
2019-01-12T22:52:18.587Z,25.20
2019-01-12T22:54:52.435Z,25.00
2019-01-12T22:57:26.067Z,24.80
2019-01-12T22:59:59.731Z,24.60
2019-01-12T23:02:33.505Z,24.40
2019-01-12T23:05:07.578Z,24.20
2019-01-12T23:07:41.654Z,24.10
2019-01-12T23:10:15.477Z,24.00
2019-01-12T23:12:49.261Z,23.90
2019-01-12T23:15:23.120Z,23.80
2019-01-12T23:17:56.763Z,23.60
2019-01-12T23:20:30.583Z,23.50
2019-01-12T23:23:04.394Z,23.40
2019-01-12T23:25:39.655Z,23.30
2019-01-12T23:28:13.491Z,23.20
2019-01-12T23:30:47.411Z,23.10
2019-01-12T23:33:21.784Z,23.10
2019-01-12T23:35:56.481Z,23.00
2019-01-12T23:38:30.415Z,23.00
2019-01-12T23:41:04.146Z,22.90
2019-01-12T23:43:38.027Z,22.80
2019-01-12T23:46:11.717Z,22.70
2019-01-12T23:48:45.456Z,22.70
2019-01-12T23:51:19.374Z,22.60
2019-01-12T23:53:53.333Z,22.50
2019-01-12T23:56:27.150Z,22.50
2019-01-12T23:59:00.840Z,22.50
